Roy Baker — WDC2698 — position and weather

sailwx.info

Track history (hours):
 
Tides and Currents Weather Stations Pressure Air Temp Water Temp Dewpoint Dewpoint Depression Visibility Wind Speed Wind Dir Waves Ship Positions

Roy Baker

Owner: Kirby Inland Marine LP, Houston, TX. More information available from US FCC via Universal Licensing System and Coast Guard Vessel Documentation Center.

Last reported at 2018-Feb-19 12:00 UTC. Time now 2018-Feb-19 12:09 UTC.
Position N 30°04' W 093°24'.

Length 11 m; draft 2.1 m.

Type: Towing. MMSI: 366996540.

Date/timePositionNaut miles runAvg speedWind from/ knotsBaromVisibWave heightAir tempDewpointWater temp
2018-Feb-19 12:00N 30°04' W 093°24'0 0.1
2018-Feb-19 11:31N 30°04' W 093°24'0 0.0
2018-Feb-19 11:01N 30°04' W 093°24'0 0.0
2018-Feb-19 10:31N 30°04' W 093°24'0 0.0
2018-Feb-19 09:58N 30°04' W 093°24'0 0.0
2018-Feb-19 09:29N 30°04' W 093°24'0 0.0
2018-Feb-19 09:00N 30°04' W 093°24'0 0.0
2018-Feb-19 08:29N 30°04' W 093°24'0 0.0
2018-Feb-19 08:01N 30°04' W 093°24'0 0.0
2018-Feb-19 07:30N 30°04' W 093°24'0 0.0
2018-Feb-19 07:01N 30°04' W 093°24'0 0.0
2018-Feb-19 06:30N 30°04' W 093°24'0 0.0
2018-Feb-19 06:00N 30°04' W 093°24'0 0.1
2018-Feb-19 05:31N 30°04' W 093°24'0 0.0
2018-Feb-19 05:01N 30°04' W 093°24'0 0.0
2018-Feb-19 04:31N 30°04' W 093°24'0 0.0
2018-Feb-19 03:59N 30°04' W 093°24'0 0.0
2018-Feb-19 03:31N 30°04' W 093°24'0 0.0
2018-Feb-19 03:01N 30°04' W 093°24'0 0.0
2018-Feb-19 02:31N 30°04' W 093°24'0 0.0
2018-Feb-19 02:01N 30°04' W 093°24'0 0.0
2018-Feb-19 01:31N 30°04' W 093°24'0 0.0
2018-Feb-19 01:00N 30°04' W 093°24'0 0.0
2018-Feb-19 00:31N 30°04' W 093°24'0 0.0
2018-Feb-19 00:00N 30°04' W 093°24'0 0.3
2018-Feb-18 23:31N 30°04' W 093°25'3 6.6
2018-Feb-18 23:00N 30°04' W 093°28'9 6.3
2018-Feb-18 21:34N 30°04' W 093°39'1 6.4
2018-Feb-18 21:21N 30°04' W 093°40'2 5.4
2018-Feb-18 21:01N 30°03' W 093°43'2 3.9
2018-Feb-18 20:30N 30°02' W 093°44'3 5.5
2018-Feb-18 20:01N 29°60' W 093°46'2 4.1
2018-Feb-18 19:30N 29°59' W 093°48'3 5.2
2018-Feb-18 19:01N 29°58' W 093°51'1 2.0
2018-Feb-18 18:30N 29°57' W 093°52'0 0.3
2018-Feb-18 18:00N 29°57' W 093°52'0 0.0
2018-Feb-18 17:31N 29°57' W 093°52'0 0.0
2018-Feb-18 17:01N 29°57' W 093°52'0 0.0
2018-Feb-18 16:31N 29°57' W 093°52'0 0.0
2018-Feb-18 16:01N 29°57' W 093°52'0 0.0
2018-Feb-18 15:30N 29°57' W 093°52'0 0.0
2018-Feb-18 15:00N 29°57' W 093°52'0 0.0
2018-Feb-18 14:31N 29°57' W 093°52'0 0.0
2018-Feb-18 14:01N 29°57' W 093°52'0 0.0
2018-Feb-18 13:31N 29°57' W 093°52'0 0.0
2018-Feb-18 13:00N 29°57' W 093°52'0 0.0
2018-Feb-18 12:31N 29°57' W 093°52'0 0.0
2018-Feb-18 12:00N 29°57' W 093°52'0 0.0
2018-Feb-18 11:31N 29°57' W 093°52'0 0.0
2018-Feb-18 11:01N 29°57' W 093°52'0 0.0
2018-Feb-18 10:30N 29°57' W 093°52'0 0.0
2018-Feb-18 10:01N 29°57' W 093°52'0 0.0
2018-Feb-18 09:30N 29°57' W 093°52'0 0.0
2018-Feb-18 09:01N 29°57' W 093°52'0 0.0
2018-Feb-18 08:30N 29°57' W 093°52'0 0.0
2018-Feb-18 08:00N 29°57' W 093°52'0 0.0
2018-Feb-18 07:30N 29°57' W 093°52'0 0.0
2018-Feb-18 07:00N 29°57' W 093°52'0 0.0
2018-Feb-18 06:31N 29°57' W 093°52'0 0.0
2018-Feb-18 06:00N 29°57' W 093°52'0 0.0
2018-Feb-18 05:30N 29°57' W 093°52'0 0.0
2018-Feb-18 05:01N 29°57' W 093°52'0 0.0
2018-Feb-18 04:30N 29°57' W 093°52'0 0.0
2018-Feb-18 04:01N 29°57' W 093°52'0 0.0
2018-Feb-18 03:31N 29°57' W 093°52'0 0.0
2018-Feb-18 03:01N 29°57' W 093°52'0 0.0
2018-Feb-18 02:30N 29°57' W 093°52'0 0.0
2018-Feb-18 02:01N 29°57' W 093°52'0 0.0
2018-Feb-18 01:31N 29°57' W 093°52'0 0.0
2018-Feb-18 01:01N 29°57' W 093°52'0 0.1
2018-Feb-18 00:31N 29°57' W 093°52'0 0.0
2018-Feb-18 00:01N 29°57' W 093°52'0 0.1
2018-Feb-17 23:30N 29°57' W 093°52'0 0.1
2018-Feb-17 23:00N 29°57' W 093°52'0 0.0
2018-Feb-17 22:31N 29°57' W 093°52'0 0.6
2018-Feb-17 21:59N 29°58' W 093°52'0 0.6
2018-Feb-17 21:31N 29°57' W 093°52'0 0.8
2018-Feb-17 21:01N 29°58' W 093°52'2 4.4
2018-Feb-17 20:30N 29°56' W 093°53'3 5.2
2018-Feb-17 20:00N 29°54' W 093°54'2 5.0
2018-Feb-17 19:31N 29°52' W 093°56'2 4.9
2018-Feb-17 19:01N 29°50' W 093°57'0 0.8
2018-Feb-17 18:31N 29°50' W 093°58'0 0.0
2018-Feb-17 18:01N 29°50' W 093°58'0 0.0
2018-Feb-17 17:31N 29°50' W 093°58'0 0.0
2018-Feb-17 17:01N 29°50' W 093°58'0 0.5
2018-Feb-17 16:31N 29°50' W 093°58'4 8.5
2018-Feb-17 16:01N 29°53' W 093°55'4 8.8
2018-Feb-17 15:31N 29°57' W 093°52'1 1.8
2018-Feb-17 15:00N 29°58' W 093°52'0 0.0
2018-Feb-17 14:30N 29°58' W 093°52'0 0.0
2018-Feb-17 14:00N 29°58' W 093°52'0 0.0
2018-Feb-17 13:31N 29°58' W 093°52'0 0.0
2018-Feb-17 12:59N 29°58' W 093°52'0 0.0
2018-Feb-17 12:31N 29°58' W 093°52'0 0.0
2018-Feb-17 12:00N 29°58' W 093°52'0 0.0
2018-Feb-17 11:31N 29°58' W 093°52'0 0.0
2018-Feb-17 11:00N 29°58' W 093°52'0 0.0
2018-Feb-17 10:30N 29°58' W 093°52'0 0.0
2018-Feb-17 10:01N 29°58' W 093°52'0 0.0
2018-Feb-17 09:30N 29°58' W 093°52'0 0.0
2018-Feb-17 09:01N 29°58' W 093°52'0 0.0
2018-Feb-17 08:29N 29°58' W 093°52'0 0.0
2018-Feb-17 08:00N 29°58' W 093°52'0 0.0
2018-Feb-17 07:31N 29°58' W 093°52'0 0.0
2018-Feb-17 07:01N 29°58' W 093°52'0 0.0
2018-Feb-17 06:30N 29°58' W 093°52'0 0.0
2018-Feb-17 05:59N 29°58' W 093°52'0 0.0
2018-Feb-17 05:30N 29°58' W 093°52'0 0.0
2018-Feb-17 05:01N 29°58' W 093°52'0 0.0
2018-Feb-17 04:31N 29°58' W 093°52'0 0.0
2018-Feb-17 04:00N 29°58' W 093°52'0 0.0
2018-Feb-17 03:31N 29°58' W 093°52'0 0.0
2018-Feb-17 03:00N 29°58' W 093°52'0 0.0
2018-Feb-17 02:31N 29°58' W 093°52'0 0.0
2018-Feb-17 02:01N 29°58' W 093°52'0 0.0
2018-Feb-17 01:30N 29°58' W 093°52'0 0.0
2018-Feb-17 01:01N 29°58' W 093°52'1 2.2
2018-Feb-17 00:30N 29°58' W 093°51'4 8.5
2018-Feb-17 00:00N 29°60' W 093°46'4 7.1
2018-Feb-16 23:30N 30°03' W 093°44'3 5.3
2018-Feb-16 23:00N 30°04' W 093°41'6 5.3
2018-Feb-16 21:50N 30°04' W 093°34'2 5.5
2018-Feb-16 21:31N 30°04' W 093°32'3 5.8
2018-Feb-16 21:01N 30°04' W 093°28'3 5.5
2018-Feb-16 20:31N 30°04' W 093°25'3 5.1
2018-Feb-16 20:00N 30°04' W 093°22'2 3.8
2018-Feb-16 19:30N 30°05' W 093°20'1 1.3
2018-Feb-16 19:01N 30°04' W 093°20'2 3.7
2018-Feb-16 18:31N 30°03' W 093°20'3 5.9
2018-Feb-16 18:00N 29°60' W 093°20'3 5.9
2018-Feb-16 17:30N 29°57' W 093°20'9 0.6
2018-Feb-16 03:29N 29°48' W 093°21'0 0.0
2018-Feb-16 03:00N 29°48' W 093°21'0 0.0
2018-Feb-16 02:28N 29°48' W 093°21'0 0.0
2018-Feb-16 01:59N 29°48' W 093°21'9 3.8
2018-Feb-15 23:34N 29°57' W 093°20'110.2
2018-Feb-15 23:30N 29°58' W 093°20'510.4
2018-Feb-15 23:00N 30°03' W 093°20'1 2.6
2018-Feb-15 22:30N 30°04' W 093°21'3 6.9
2018-Feb-15 22:00N 30°04' W 093°25'4 7.5
2018-Feb-15 21:30N 30°04' W 093°29'11 8.0
2018-Feb-15 20:07N 30°03' W 093°42'1 7.0
2018-Feb-15 20:00N 30°03' W 093°43'3 6.1
2018-Feb-15 19:29N 30°01' W 093°45'4 7.6
2018-Feb-15 19:00N 29°59' W 093°49'3 5.7
2018-Feb-15 18:30N 29°58' W 093°52'0 0.4
2018-Feb-15 18:00N 29°57' W 093°52'0 0.1
2018-Feb-15 17:30N 29°57' W 093°52'0 0.0
2018-Feb-15 17:01N 29°57' W 093°52'0 0.0
2018-Feb-15 16:31N 29°57' W 093°52'0 0.0
2018-Feb-15 16:00N 29°57' W 093°52'0 0.0
2018-Feb-15 15:31N 29°57' W 093°52'0 0.0
2018-Feb-15 15:01N 29°57' W 093°52'0 0.0
2018-Feb-15 14:31N 29°57' W 093°52'0 0.0
2018-Feb-15 14:01N 29°57' W 093°52'0 0.0
2018-Feb-15 13:31N 29°57' W 093°52'0 0.0
2018-Feb-15 13:00N 29°57' W 093°52'0 0.0
2018-Feb-15 12:31N 29°57' W 093°52'0 0.0
2018-Feb-15 12:00N 29°57' W 093°52'0 0.0
2018-Feb-15 11:30N 29°57' W 093°52'0 0.0
2018-Feb-15 11:01N 29°57' W 093°52'0 0.0
2018-Feb-15 10:30N 29°57' W 093°52'0 0.0
2018-Feb-15 10:01N 29°57' W 093°52'0 0.0
2018-Feb-15 09:30N 29°57' W 093°52'0 0.0
2018-Feb-15 09:00N 29°57' W 093°52'0 0.0
2018-Feb-15 08:31N 29°57' W 093°52'0 0.0
2018-Feb-15 08:01N 29°57' W 093°52'0 0.0
2018-Feb-15 07:31N 29°57' W 093°52'0 0.0
2018-Feb-15 07:01N 29°57' W 093°52'0 0.0
2018-Feb-15 06:31N 29°57' W 093°52'0 0.0
2018-Feb-15 06:01N 29°57' W 093°52'0 0.0
2018-Feb-15 05:30N 29°57' W 093°52'0 0.0
2018-Feb-15 05:00N 29°57' W 093°52'0 0.0
2018-Feb-15 04:31N 29°57' W 093°52'0 0.0
2018-Feb-15 04:01N 29°57' W 093°52'0 0.0
2018-Feb-15 03:30N 29°57' W 093°52'0 0.0
2018-Feb-15 03:01N 29°57' W 093°52'0 0.0
2018-Feb-15 02:31N 29°57' W 093°52'0 0.2
2018-Feb-15 02:00N 29°58' W 093°52'0 0.2
2018-Feb-15 01:31N 29°57' W 093°52'0 0.0
2018-Feb-15 01:01N 29°57' W 093°52'0 0.0
2018-Feb-15 00:30N 29°57' W 093°52'0 0.0
2018-Feb-15 00:01N 29°57' W 093°52'0 0.0
2018-Feb-14 23:29N 29°57' W 093°52'0 0.0
2018-Feb-14 23:00N 29°57' W 093°52'0 0.0
2018-Feb-14 22:30N 29°57' W 093°52'0 0.0
2018-Feb-14 21:59N 29°57' W 093°52'0 0.0
2018-Feb-14 21:31N 29°57' W 093°52'0 0.0
2018-Feb-14 21:00N 29°57' W 093°52'0 0.0
2018-Feb-14 20:31N 29°57' W 093°52'0 0.0
2018-Feb-14 20:01N 29°57' W 093°52'0 0.0
2018-Feb-14 19:31N 29°57' W 093°52'0 0.0
2018-Feb-14 19:01N 29°57' W 093°52'0 0.0
2018-Feb-14 18:31N 29°57' W 093°52'0 0.0
2018-Feb-14 18:00N 29°57' W 093°52'0 0.0
2018-Feb-14 17:31N 29°57' W 093°52'0 0.0
2018-Feb-14 17:01N 29°57' W 093°52'0 0.0
2018-Feb-14 16:30N 29°57' W 093°52'0 0.0
2018-Feb-14 16:01N 29°57' W 093°52'0 0.0
2018-Feb-14 15:31N 29°57' W 093°52'0 0.0
2018-Feb-14 15:01N 29°57' W 093°52'0 0.0
2018-Feb-14 14:31N 29°57' W 093°52'0 0.2
2018-Feb-14 14:00N 29°58' W 093°52'0 0.1
2018-Feb-14 13:31N 29°57' W 093°52'0 0.0
2018-Feb-14 13:01N 29°57' W 093°52'0 0.1
2018-Feb-14 12:31N 29°57' W 093°52'0 0.1
2018-Feb-14 12:01N 29°57' W 093°52'0 0.0
2018-Feb-14 11:31N 29°57' W 093°52'0 0.0
2018-Feb-14 11:01N 29°57' W 093°52'0 0.0
2018-Feb-14 10:31N 29°57' W 093°52'0 0.0
2018-Feb-14 10:00N 29°57' W 093°52'0 0.0
2018-Feb-14 09:30N 29°57' W 093°52'0 0.0
2018-Feb-14 09:01N 29°57' W 093°52'0 0.0
2018-Feb-14 08:31N 29°57' W 093°52'0 0.0
2018-Feb-14 08:01N 29°57' W 093°52'0 0.0
2018-Feb-14 07:31N 29°57' W 093°52'0 0.0
2018-Feb-14 07:01N 29°57' W 093°52'0 0.0
2018-Feb-14 06:31N 29°57' W 093°52'0 0.0
2018-Feb-14 06:01N 29°57' W 093°52'0 0.0
2018-Feb-14 05:31N 29°57' W 093°52'0 0.0
2018-Feb-14 05:01N 29°57' W 093°52'0 0.0
2018-Feb-14 04:31N 29°57' W 093°52'0 0.0
2018-Feb-14 04:01N 29°57' W 093°52'0 0.0
2018-Feb-14 03:30N 29°57' W 093°52'0 0.0
2018-Feb-14 03:00N 29°57' W 093°52'0 0.0
2018-Feb-14 02:31N 29°57' W 093°52'0 0.3
2018-Feb-14 02:01N 29°58' W 093°52'0 0.2
2018-Feb-14 01:31N 29°57' W 093°52'0 0.0
2018-Feb-14 01:00N 29°57' W 093°52'0 0.2
2018-Feb-14 00:30N 29°58' W 093°52'0 0.3
2018-Feb-13 23:58N 29°57' W 093°52'0 0.0
2018-Feb-13 23:31N 29°57' W 093°52'0 0.0
2018-Feb-13 22:59N 29°57' W 093°52'0 0.0
2018-Feb-13 22:30N 29°57' W 093°52'0 0.0
2018-Feb-13 22:00N 29°57' W 093°52'0 0.0
2018-Feb-13 21:31N 29°57' W 093°52'0 0.0
2018-Feb-13 21:00N 29°57' W 093°52'0 0.0
2018-Feb-13 20:30N 29°57' W 093°52'0 0.0
2018-Feb-13 20:01N 29°57' W 093°52'0 0.0
2018-Feb-13 19:30N 29°57' W 093°52'0 0.0
2018-Feb-13 19:00N 29°57' W 093°52'0 0.0
2018-Feb-13 18:31N 29°57' W 093°52'0 0.0
2018-Feb-13 18:00N 29°57' W 093°52'0 0.0
2018-Feb-13 17:31N 29°57' W 093°52'0 0.7
2018-Feb-13 17:00N 29°58' W 093°52'0 0.6
2018-Feb-13 16:31N 29°57' W 093°52'0 0.0
2018-Feb-13 16:01N 29°57' W 093°52'0 0.0
2018-Feb-13 15:30N 29°57' W 093°52'0 0.0
2018-Feb-13 15:00N 29°57' W 093°52'0 0.0
2018-Feb-13 14:31N 29°57' W 093°52'0 0.0
2018-Feb-13 14:01N 29°57' W 093°52'0 0.0
2018-Feb-13 13:31N 29°57' W 093°52'0 0.0
2018-Feb-13 13:01N 29°57' W 093°52'0 0.0
2018-Feb-13 12:30N 29°57' W 093°52'0 0.0
2018-Feb-13 12:00N 29°57' W 093°52'0 0.0
2018-Feb-13 11:30N 29°57' W 093°52'0 0.0
2018-Feb-13 11:00N 29°57' W 093°52'0 0.0
2018-Feb-13 10:31N 29°57' W 093°52'0 0.0
2018-Feb-13 10:01N 29°57' W 093°52'0 0.0
2018-Feb-13 09:29N 29°57' W 093°52'0 0.0
2018-Feb-13 09:00N 29°57' W 093°52'0 0.0
2018-Feb-13 08:30N 29°57' W 093°52'0 0.0
2018-Feb-13 08:01N 29°57' W 093°52'0 0.0
2018-Feb-13 07:30N 29°57' W 093°52'0 0.0
2018-Feb-13 07:00N 29°57' W 093°52'0 0.0
2018-Feb-13 06:30N 29°57' W 093°52'0 0.0
2018-Feb-13 06:00N 29°57' W 093°52'0 0.0
2018-Feb-13 05:31N 29°57' W 093°52'0 0.3
2018-Feb-13 05:01N 29°58' W 093°52'0 0.3
2018-Feb-13 04:31N 29°57' W 093°52'0 0.0
2018-Feb-13 04:00N 29°57' W 093°52'0 0.0
2018-Feb-13 03:30N 29°57' W 093°52'0 0.0
2018-Feb-13 03:01N 29°57' W 093°52'0 0.0
2018-Feb-13 02:30N 29°57' W 093°52'0 0.0
2018-Feb-13 01:59N 29°57' W 093°52'0 0.0
2018-Feb-13 01:22N 29°57' W 093°52'0 0.0
2018-Feb-13 01:00N 29°57' W 093°52'0 0.0
2018-Feb-13 00:31N 29°57' W 093°52'0 0.0
2018-Feb-13 00:00N 29°57' W 093°52'0 0.6
2018-Feb-12 23:30N 29°58' W 093°52'0 0.1
2018-Feb-12 23:00N 29°58' W 093°52'0 0.7
2018-Feb-12 22:31N 29°57' W 093°52'0 0.0
2018-Feb-12 22:00N 29°57' W 093°52'0 0.0
2018-Feb-12 21:31N 29°57' W 093°52'0 0.1
2018-Feb-12 21:01N 29°57' W 093°52'0 0.0
2018-Feb-12 20:31N 29°57' W 093°52'0 0.2
2018-Feb-12 20:00N 29°57' W 093°52'0 0.3
2018-Feb-12 19:31N 29°58' W 093°52'0 0.2
2018-Feb-12 19:01N 29°58' W 093°52'0 0.0
2018-Feb-12 18:30N 29°58' W 093°52'0 0.0
2018-Feb-12 18:00N 29°58' W 093°52'0 0.0
2018-Feb-12 17:29N 29°58' W 093°52'0 0.0
2018-Feb-12 16:59N 29°58' W 093°52'0 0.5
2018-Feb-12 16:30N 29°58' W 093°52'0 0.6
2018-Feb-12 16:00N 29°57' W 093°52'0 0.1
2018-Feb-12 15:31N 29°58' W 093°52'0 0.0
2018-Feb-12 15:00N 29°58' W 093°52'0 0.0
2018-Feb-12 14:31N 29°58' W 093°52'0 0.0
2018-Feb-12 14:00N 29°58' W 093°52'0 0.0
2018-Feb-12 13:31N 29°58' W 093°52'0 0.0
2018-Feb-12 13:01N 29°58' W 093°52'0 0.0
2018-Feb-12 12:30N 29°58' W 093°52'0 0.0
2018-Feb-12 12:01N 29°58' W 093°52'0 0.0
2018-Feb-12 11:31N 29°58' W 093°52'0 0.0
2018-Feb-12 11:01N 29°58' W 093°52'0 0.6
2018-Feb-12 10:31N 29°58' W 093°52'0 0.6
2018-Feb-12 10:01N 29°57' W 093°52'0 0.1
2018-Feb-12 09:31N 29°58' W 093°52'0 0.0
2018-Feb-12 09:00N 29°58' W 093°52'0 0.0
2018-Feb-12 08:31N 29°58' W 093°52'0 0.0
2018-Feb-12 08:01N 29°58' W 093°52'0 0.0
2018-Feb-12 07:31N 29°58' W 093°52'0 0.0
2018-Feb-12 07:01N 29°58' W 093°52'0 0.0
2018-Feb-12 06:31N 29°58' W 093°52'0 0.0
2018-Feb-12 06:00N 29°58' W 093°52'0 0.0
2018-Feb-12 05:31N 29°58' W 093°52'0 0.0
2018-Feb-12 05:01N 29°58' W 093°52'0 0.0
2018-Feb-12 04:31N 29°58' W 093°52'0 0.0
2018-Feb-12 04:00N 29°58' W 093°52'0 0.0
2018-Feb-12 03:28N 29°58' W 093°52'0 0.0
2018-Feb-12 03:00N 29°58' W 093°52'0 0.0
2018-Feb-12 02:31N 29°58' W 093°52'0 0.0
2018-Feb-12 01:59N 29°58' W 093°52'0 0.0
2018-Feb-12 01:31N 29°58' W 093°52'0 0.0
2018-Feb-12 00:59N 29°58' W 093°52'0 0.0
2018-Feb-12 00:28N 29°58' W 093°52'0 0.0
2018-Feb-12 00:00N 29°58' W 093°52'0 0.0
2018-Feb-11 23:30N 29°58' W 093°52'0 0.0
2018-Feb-11 23:01N 29°58' W 093°52'0 0.0
2018-Feb-11 22:30N 29°58' W 093°52'0 0.0
2018-Feb-11 22:00N 29°58' W 093°52'0 0.0
2018-Feb-11 21:30N 29°58' W 093°52'0 0.0
2018-Feb-11 21:01N 29°58' W 093°52'0 0.0
2018-Feb-11 20:26N 29°58' W 093°52'0 0.0
2018-Feb-11 19:59N 29°58' W 093°52'0 0.0
2018-Feb-11 19:30N 29°58' W 093°52'0 0.0
2018-Feb-11 19:01N 29°58' W 093°52'0 0.0
2018-Feb-11 18:31N 29°58' W 093°52'0 0.0
2018-Feb-11 18:01N 29°58' W 093°52'0 0.0
2018-Feb-11 17:30N 29°58' W 093°52'0 0.0
2018-Feb-11 17:00N 29°58' W 093°52'0 0.2
2018-Feb-11 16:31N 29°57' W 093°52'0 0.1
2018-Feb-11 16:01N 29°57' W 093°52'0 0.2
2018-Feb-11 15:31N 29°57' W 093°52'0 0.0
2018-Feb-11 15:01N 29°57' W 093°52'0 0.0
2018-Feb-11 14:31N 29°57' W 093°52'0 0.1
2018-Feb-11 14:00N 29°57' W 093°52'0 0.1
2018-Feb-11 13:31N 29°57' W 093°52'0 0.9
2018-Feb-11 13:00N 29°58' W 093°52'0 0.0
2018-Feb-11 12:31N 29°58' W 093°52'0 0.0
2018-Feb-11 12:00N 29°58' W 093°52'0 0.0
2018-Feb-11 11:29N 29°58' W 093°52'0 0.0
2018-Feb-11 11:01N 29°58' W 093°52'0 0.0
2018-Feb-11 10:31N 29°58' W 093°52'0 0.0
2018-Feb-11 10:01N 29°58' W 093°52'0 0.0
2018-Feb-11 09:30N 29°58' W 093°52'0 0.0
2018-Feb-11 09:01N 29°58' W 093°52'0 0.0
2018-Feb-11 08:30N 29°58' W 093°52'0 0.0
2018-Feb-11 08:00N 29°58' W 093°52'0 0.0
2018-Feb-11 07:30N 29°58' W 093°52'0 0.0
2018-Feb-11 07:01N 29°58' W 093°52'0 0.0
2018-Feb-11 06:31N 29°58' W 093°52'0 0.0
2018-Feb-11 06:01N 29°58' W 093°52'0 0.0
2018-Feb-11 05:30N 29°58' W 093°52'0 0.0
2018-Feb-11 05:00N 29°58' W 093°52'0 0.0
2018-Feb-11 04:31N 29°58' W 093°52'0 0.0
2018-Feb-11 04:01N 29°58' W 093°52'0 0.0
2018-Feb-11 03:30N 29°58' W 093°52'0 0.0
2018-Feb-11 03:01N 29°58' W 093°52'0 0.0
2018-Feb-11 02:31N 29°58' W 093°52'0 0.0
2018-Feb-11 02:00N 29°58' W 093°52'0 0.0
2018-Feb-11 01:30N 29°58' W 093°52'0 0.0
2018-Feb-11 01:00N 29°58' W 093°52'0 0.0
2018-Feb-11 00:30N 29°58' W 093°52'0 0.0
2018-Feb-11 00:00N 29°58' W 093°52'0 0.0
2018-Feb-10 23:30N 29°58' W 093°52'0 0.0
2018-Feb-10 23:00N 29°58' W 093°52'0 0.0
2018-Feb-10 22:31N 29°58' W 093°52'0 0.0
2018-Feb-10 22:01N 29°58' W 093°52'0 0.0
2018-Feb-10 21:31N 29°58' W 093°52'0 0.0
2018-Feb-10 21:01N 29°58' W 093°52'0 0.0
2018-Feb-10 20:31N 29°58' W 093°52'0 0.0
2018-Feb-10 20:01N 29°58' W 093°52'0 0.5
2018-Feb-10 19:30N 29°58' W 093°52'0 0.1
2018-Feb-10 19:01N 29°58' W 093°52'0 0.7
2018-Feb-10 18:29N 29°57' W 093°52'0 0.4
2018-Feb-10 18:00N 29°57' W 093°52'0 0.2
2018-Feb-10 17:30N 29°57' W 093°52'0 0.1
2018-Feb-10 17:00N 29°57' W 093°52'0 0.3
2018-Feb-10 16:30N 29°57' W 093°52'3 5.7
2018-Feb-10 16:00N 29°59' W 093°49'3 6.1
2018-Feb-10 15:30N 30°00' W 093°46'3 6.4
2018-Feb-10 15:00N 30°03' W 093°44'3 5.9
2018-Feb-10 14:30N 30°04' W 093°40'1 2.1
2018-Feb-10 14:00N 30°04' W 093°39'0 0.0
2018-Feb-10 13:29N 30°04' W 093°39'0 0.0
2018-Feb-10 13:00N 30°04' W 093°39'0 0.0
2018-Feb-10 12:30N 30°04' W 093°39'0 0.0
2018-Feb-10 11:19N 30°04' W 093°39'0 0.0
2018-Feb-10 10:59N 30°04' W 093°39'0 0.0
2018-Feb-10 10:30N 30°04' W 093°39'0 0.0
2018-Feb-10 09:57N 30°04' W 093°39'0 0.0
2018-Feb-10 09:30N 30°04' W 093°39'0 0.0
2018-Feb-10 09:00N 30°04' W 093°39'0 0.0
2018-Feb-10 08:24N 30°04' W 093°39'0 0.0
2018-Feb-10 07:57N 30°04' W 093°39'0 0.0
2018-Feb-10 07:22N 30°04' W 093°39'0 0.0
2018-Feb-10 06:58N 30°04' W 093°39'0 0.0
2018-Feb-10 06:23N 30°04' W 093°39'0 0.0
2018-Feb-10 05:53N 30°04' W 093°39'0 0.0
2018-Feb-10 05:22N 30°04' W 093°39'0 0.0
2018-Feb-10 04:04N 30°04' W 093°39'0 0.1
2018-Feb-10 03:59N 30°04' W 093°39'0 0.1
2018-Feb-10 03:25N 30°04' W 093°39'0 0.2
2018-Feb-10 01:22N 30°04' W 093°39'  
Track history (hours):
 
Tides and Currents Weather Stations Pressure Air Temp Water Temp Dewpoint Dewpoint Depression Visibility Wind Speed Wind Dir Waves Ship Positions

Roy Baker

Owner: Kirby Inland Marine LP, Houston, TX. More information available from US FCC via Universal Licensing System and Coast Guard Vessel Documentation Center.

Last reported at 2018-Feb-19 12:00 UTC. Time now 2018-Feb-19 12:09 UTC.
Position N 30°04' W 093°24'.

Length 11 m; draft 2.1 m.

Type: Towing. MMSI: 366996540.

Date/timePositionNaut miles runAvg speedWind from/ knotsBaromVisibWave heightAir tempDewpointWater temp
2018-Feb-19 12:00N 30°04' W 093°24'0 0.1
2018-Feb-19 11:31N 30°04' W 093°24'0 0.0
2018-Feb-19 11:01N 30°04' W 093°24'0 0.0
2018-Feb-19 10:31N 30°04' W 093°24'0 0.0
2018-Feb-19 09:58N 30°04' W 093°24'0 0.0
2018-Feb-19 09:29N 30°04' W 093°24'0 0.0
2018-Feb-19 09:00N 30°04' W 093°24'0 0.0
2018-Feb-19 08:29N 30°04' W 093°24'0 0.0
2018-Feb-19 08:01N 30°04' W 093°24'0 0.0
2018-Feb-19 07:30N 30°04' W 093°24'0 0.0
2018-Feb-19 07:01N 30°04' W 093°24'0 0.0
2018-Feb-19 06:30N 30°04' W 093°24'0 0.0
2018-Feb-19 06:00N 30°04' W 093°24'0 0.1
2018-Feb-19 05:31N 30°04' W 093°24'0 0.0
2018-Feb-19 05:01N 30°04' W 093°24'0 0.0
2018-Feb-19 04:31N 30°04' W 093°24'0 0.0
2018-Feb-19 03:59N 30°04' W 093°24'0 0.0
2018-Feb-19 03:31N 30°04' W 093°24'0 0.0
2018-Feb-19 03:01N 30°04' W 093°24'0 0.0
2018-Feb-19 02:31N 30°04' W 093°24'0 0.0
2018-Feb-19 02:01N 30°04' W 093°24'0 0.0
2018-Feb-19 01:31N 30°04' W 093°24'0 0.0
2018-Feb-19 01:00N 30°04' W 093°24'0 0.0
2018-Feb-19 00:31N 30°04' W 093°24'0 0.0
2018-Feb-19 00:00N 30°04' W 093°24'0 0.3
2018-Feb-18 23:31N 30°04' W 093°25'3 6.6
2018-Feb-18 23:00N 30°04' W 093°28'9 6.3
2018-Feb-18 21:34N 30°04' W 093°39'1 6.4
2018-Feb-18 21:21N 30°04' W 093°40'2 5.4
2018-Feb-18 21:01N 30°03' W 093°43'2 3.9
2018-Feb-18 20:30N 30°02' W 093°44'3 5.5
2018-Feb-18 20:01N 29°60' W 093°46'2 4.1
2018-Feb-18 19:30N 29°59' W 093°48'3 5.2
2018-Feb-18 19:01N 29°58' W 093°51'1 2.0
2018-Feb-18 18:30N 29°57' W 093°52'0 0.3
2018-Feb-18 18:00N 29°57' W 093°52'0 0.0
2018-Feb-18 17:31N 29°57' W 093°52'0 0.0
2018-Feb-18 17:01N 29°57' W 093°52'0 0.0
2018-Feb-18 16:31N 29°57' W 093°52'0 0.0
2018-Feb-18 16:01N 29°57' W 093°52'0 0.0
2018-Feb-18 15:30N 29°57' W 093°52'0 0.0
2018-Feb-18 15:00N 29°57' W 093°52'0 0.0
2018-Feb-18 14:31N 29°57' W 093°52'0 0.0
2018-Feb-18 14:01N 29°57' W 093°52'0 0.0
2018-Feb-18 13:31N 29°57' W 093°52'0 0.0
2018-Feb-18 13:00N 29°57' W 093°52'0 0.0
2018-Feb-18 12:31N 29°57' W 093°52'0 0.0
2018-Feb-18 12:00N 29°57' W 093°52'0 0.0
2018-Feb-18 11:31N 29°57' W 093°52'0 0.0
2018-Feb-18 11:01N 29°57' W 093°52'0 0.0
2018-Feb-18 10:30N 29°57' W 093°52'0 0.0
2018-Feb-18 10:01N 29°57' W 093°52'0 0.0
2018-Feb-18 09:30N 29°57' W 093°52'0 0.0
2018-Feb-18 09:01N 29°57' W 093°52'0 0.0
2018-Feb-18 08:30N 29°57' W 093°52'0 0.0
2018-Feb-18 08:00N 29°57' W 093°52'0 0.0
2018-Feb-18 07:30N 29°57' W 093°52'0 0.0
2018-Feb-18 07:00N 29°57' W 093°52'0 0.0
2018-Feb-18 06:31N 29°57' W 093°52'0 0.0
2018-Feb-18 06:00N 29°57' W 093°52'0 0.0
2018-Feb-18 05:30N 29°57' W 093°52'0 0.0
2018-Feb-18 05:01N 29°57' W 093°52'0 0.0
2018-Feb-18 04:30N 29°57' W 093°52'0 0.0
2018-Feb-18 04:01N 29°57' W 093°52'0 0.0
2018-Feb-18 03:31N 29°57' W 093°52'0 0.0
2018-Feb-18 03:01N 29°57' W 093°52'0 0.0
2018-Feb-18 02:30N 29°57' W 093°52'0 0.0
2018-Feb-18 02:01N 29°57' W 093°52'0 0.0
2018-Feb-18 01:31N 29°57' W 093°52'0 0.0
2018-Feb-18 01:01N 29°57' W 093°52'0 0.1
2018-Feb-18 00:31N 29°57' W 093°52'0 0.0
2018-Feb-18 00:01N 29°57' W 093°52'0 0.1
2018-Feb-17 23:30N 29°57' W 093°52'0 0.1
2018-Feb-17 23:00N 29°57' W 093°52'0 0.0
2018-Feb-17 22:31N 29°57' W 093°52'0 0.6
2018-Feb-17 21:59N 29°58' W 093°52'0 0.6
2018-Feb-17 21:31N 29°57' W 093°52'0 0.8
2018-Feb-17 21:01N 29°58' W 093°52'2 4.4
2018-Feb-17 20:30N 29°56' W 093°53'3 5.2
2018-Feb-17 20:00N 29°54' W 093°54'2 5.0
2018-Feb-17 19:31N 29°52' W 093°56'2 4.9
2018-Feb-17 19:01N 29°50' W 093°57'0 0.8
2018-Feb-17 18:31N 29°50' W 093°58'0 0.0
2018-Feb-17 18:01N 29°50' W 093°58'0 0.0
2018-Feb-17 17:31N 29°50' W 093°58'0 0.0
2018-Feb-17 17:01N 29°50' W 093°58'0 0.5
2018-Feb-17 16:31N 29°50' W 093°58'4 8.5
2018-Feb-17 16:01N 29°53' W 093°55'4 8.8
2018-Feb-17 15:31N 29°57' W 093°52'1 1.8
2018-Feb-17 15:00N 29°58' W 093°52'0 0.0
2018-Feb-17 14:30N 29°58' W 093°52'0 0.0
2018-Feb-17 14:00N 29°58' W 093°52'0 0.0
2018-Feb-17 13:31N 29°58' W 093°52'0 0.0
2018-Feb-17 12:59N 29°58' W 093°52'0 0.0
2018-Feb-17 12:31N 29°58' W 093°52'0 0.0
2018-Feb-17 12:00N 29°58' W 093°52'0 0.0
2018-Feb-17 11:31N 29°58' W 093°52'0 0.0
2018-Feb-17 11:00N 29°58' W 093°52'0 0.0
2018-Feb-17 10:30N 29°58' W 093°52'0 0.0
2018-Feb-17 10:01N 29°58' W 093°52'0 0.0
2018-Feb-17 09:30N 29°58' W 093°52'0 0.0
2018-Feb-17 09:01N 29°58' W 093°52'0 0.0
2018-Feb-17 08:29N 29°58' W 093°52'0 0.0
2018-Feb-17 08:00N 29°58' W 093°52'0 0.0
2018-Feb-17 07:31N 29°58' W 093°52'0 0.0
2018-Feb-17 07:01N 29°58' W 093°52'0 0.0
2018-Feb-17 06:30N 29°58' W 093°52'0 0.0
2018-Feb-17 05:59N 29°58' W 093°52'0 0.0
2018-Feb-17 05:30N 29°58' W 093°52'0 0.0
2018-Feb-17 05:01N 29°58' W 093°52'0 0.0
2018-Feb-17 04:31N 29°58' W 093°52'0 0.0
2018-Feb-17 04:00N 29°58' W 093°52'0 0.0
2018-Feb-17 03:31N 29°58' W 093°52'0 0.0
2018-Feb-17 03:00N 29°58' W 093°52'0 0.0
2018-Feb-17 02:31N 29°58' W 093°52'0 0.0
2018-Feb-17 02:01N 29°58' W 093°52'0 0.0
2018-Feb-17 01:30N 29°58' W 093°52'0 0.0
2018-Feb-17 01:01N 29°58' W 093°52'1 2.2
2018-Feb-17 00:30N 29°58' W 093°51'4 8.5
2018-Feb-17 00:00N 29°60' W 093°46'4 7.1
2018-Feb-16 23:30N 30°03' W 093°44'3 5.3
2018-Feb-16 23:00N 30°04' W 093°41'6 5.3
2018-Feb-16 21:50N 30°04' W 093°34'2 5.5
2018-Feb-16 21:31N 30°04' W 093°32'3 5.8
2018-Feb-16 21:01N 30°04' W 093°28'3 5.5
2018-Feb-16 20:31N 30°04' W 093°25'3 5.1
2018-Feb-16 20:00N 30°04' W 093°22'2 3.8
2018-Feb-16 19:30N 30°05' W 093°20'1 1.3
2018-Feb-16 19:01N 30°04' W 093°20'2 3.7
2018-Feb-16 18:31N 30°03' W 093°20'3 5.9
2018-Feb-16 18:00N 29°60' W 093°20'3 5.9
2018-Feb-16 17:30N 29°57' W 093°20'9 0.6
2018-Feb-16 03:29N 29°48' W 093°21'0 0.0
2018-Feb-16 03:00N 29°48' W 093°21'0 0.0
2018-Feb-16 02:28N 29°48' W 093°21'0 0.0
2018-Feb-16 01:59N 29°48' W 093°21'9 3.8
2018-Feb-15 23:34N 29°57' W 093°20'110.2
2018-Feb-15 23:30N 29°58' W 093°20'510.4
2018-Feb-15 23:00N 30°03' W 093°20'1 2.6
2018-Feb-15 22:30N 30°04' W 093°21'3 6.9
2018-Feb-15 22:00N 30°04' W 093°25'4 7.5
2018-Feb-15 21:30N 30°04' W 093°29'11 8.0
2018-Feb-15 20:07N 30°03' W 093°42'1 7.0
2018-Feb-15 20:00N 30°03' W 093°43'3 6.1
2018-Feb-15 19:29N 30°01' W 093°45'4 7.6
2018-Feb-15 19:00N 29°59' W 093°49'3 5.7
2018-Feb-15 18:30N 29°58' W 093°52'0 0.4
2018-Feb-15 18:00N 29°57' W 093°52'0 0.1
2018-Feb-15 17:30N 29°57' W 093°52'0 0.0
2018-Feb-15 17:01N 29°57' W 093°52'0 0.0
2018-Feb-15 16:31N 29°57' W 093°52'0 0.0
2018-Feb-15 16:00N 29°57' W 093°52'0 0.0
2018-Feb-15 15:31N 29°57' W 093°52'0 0.0
2018-Feb-15 15:01N 29°57' W 093°52'0 0.0
2018-Feb-15 14:31N 29°57' W 093°52'0 0.0
2018-Feb-15 14:01N 29°57' W 093°52'0 0.0
2018-Feb-15 13:31N 29°57' W 093°52'0 0.0
2018-Feb-15 13:00N 29°57' W 093°52'0 0.0
2018-Feb-15 12:31N 29°57' W 093°52'0 0.0
2018-Feb-15 12:00N 29°57' W 093°52'0 0.0
2018-Feb-15 11:30N 29°57' W 093°52'0 0.0
2018-Feb-15 11:01N 29°57' W 093°52'0 0.0
2018-Feb-15 10:30N 29°57' W 093°52'0 0.0
2018-Feb-15 10:01N 29°57' W 093°52'0 0.0
2018-Feb-15 09:30N 29°57' W 093°52'0 0.0
2018-Feb-15 09:00N 29°57' W 093°52'0 0.0
2018-Feb-15 08:31N 29°57' W 093°52'0 0.0
2018-Feb-15 08:01N 29°57' W 093°52'0 0.0
2018-Feb-15 07:31N 29°57' W 093°52'0 0.0
2018-Feb-15 07:01N 29°57' W 093°52'0 0.0
2018-Feb-15 06:31N 29°57' W 093°52'0 0.0
2018-Feb-15 06:01N 29°57' W 093°52'0 0.0
2018-Feb-15 05:30N 29°57' W 093°52'0 0.0
2018-Feb-15 05:00N 29°57' W 093°52'0 0.0
2018-Feb-15 04:31N 29°57' W 093°52'0 0.0
2018-Feb-15 04:01N 29°57' W 093°52'0 0.0
2018-Feb-15 03:30N 29°57' W 093°52'0 0.0
2018-Feb-15 03:01N 29°57' W 093°52'0 0.0
2018-Feb-15 02:31N 29°57' W 093°52'0 0.2
2018-Feb-15 02:00N 29°58' W 093°52'0 0.2
2018-Feb-15 01:31N 29°57' W 093°52'0 0.0
2018-Feb-15 01:01N 29°57' W 093°52'0 0.0
2018-Feb-15 00:30N 29°57' W 093°52'0 0.0
2018-Feb-15 00:01N 29°57' W 093°52'0 0.0
2018-Feb-14 23:29N 29°57' W 093°52'0 0.0
2018-Feb-14 23:00N 29°57' W 093°52'0 0.0
2018-Feb-14 22:30N 29°57' W 093°52'0 0.0
2018-Feb-14 21:59N 29°57' W 093°52'0 0.0
2018-Feb-14 21:31N 29°57' W 093°52'0 0.0
2018-Feb-14 21:00N 29°57' W 093°52'0 0.0
2018-Feb-14 20:31N 29°57' W 093°52'0 0.0
2018-Feb-14 20:01N 29°57' W 093°52'0 0.0
2018-Feb-14 19:31N 29°57' W 093°52'0 0.0
2018-Feb-14 19:01N 29°57' W 093°52'0 0.0
2018-Feb-14 18:31N 29°57' W 093°52'0 0.0
2018-Feb-14 18:00N 29°57' W 093°52'0 0.0
2018-Feb-14 17:31N 29°57' W 093°52'0 0.0
2018-Feb-14 17:01N 29°57' W 093°52'0 0.0
2018-Feb-14 16:30N 29°57' W 093°52'0 0.0
2018-Feb-14 16:01N 29°57' W 093°52'0 0.0
2018-Feb-14 15:31N 29°57' W 093°52'0 0.0
2018-Feb-14 15:01N 29°57' W 093°52'0 0.0
2018-Feb-14 14:31N 29°57' W 093°52'0 0.2
2018-Feb-14 14:00N 29°58' W 093°52'0 0.1
2018-Feb-14 13:31N 29°57' W 093°52'0 0.0
2018-Feb-14 13:01N 29°57' W 093°52'0 0.1
2018-Feb-14 12:31N 29°57' W 093°52'0 0.1
2018-Feb-14 12:01N 29°57' W 093°52'0 0.0
2018-Feb-14 11:31N 29°57' W 093°52'0 0.0
2018-Feb-14 11:01N 29°57' W 093°52'0 0.0
2018-Feb-14 10:31N 29°57' W 093°52'0 0.0
2018-Feb-14 10:00N 29°57' W 093°52'0 0.0
2018-Feb-14 09:30N 29°57' W 093°52'0 0.0
2018-Feb-14 09:01N 29°57' W 093°52'0 0.0
2018-Feb-14 08:31N 29°57' W 093°52'0 0.0
2018-Feb-14 08:01N 29°57' W 093°52'0 0.0
2018-Feb-14 07:31N 29°57' W 093°52'0 0.0
2018-Feb-14 07:01N 29°57' W 093°52'0 0.0
2018-Feb-14 06:31N 29°57' W 093°52'0 0.0
2018-Feb-14 06:01N 29°57' W 093°52'0 0.0
2018-Feb-14 05:31N 29°57' W 093°52'0 0.0
2018-Feb-14 05:01N 29°57' W 093°52'0 0.0
2018-Feb-14 04:31N 29°57' W 093°52'0 0.0
2018-Feb-14 04:01N 29°57' W 093°52'0 0.0
2018-Feb-14 03:30N 29°57' W 093°52'0 0.0
2018-Feb-14 03:00N 29°57' W 093°52'0 0.0
2018-Feb-14 02:31N 29°57' W 093°52'0 0.3
2018-Feb-14 02:01N 29°58' W 093°52'0 0.2
2018-Feb-14 01:31N 29°57' W 093°52'0 0.0
2018-Feb-14 01:00N 29°57' W 093°52'0 0.2
2018-Feb-14 00:30N 29°58' W 093°52'0 0.3
2018-Feb-13 23:58N 29°57' W 093°52'0 0.0
2018-Feb-13 23:31N 29°57' W 093°52'0 0.0
2018-Feb-13 22:59N 29°57' W 093°52'0 0.0
2018-Feb-13 22:30N 29°57' W 093°52'0 0.0
2018-Feb-13 22:00N 29°57' W 093°52'0 0.0
2018-Feb-13 21:31N 29°57' W 093°52'0 0.0
2018-Feb-13 21:00N 29°57' W 093°52'0 0.0
2018-Feb-13 20:30N 29°57' W 093°52'0 0.0
2018-Feb-13 20:01N 29°57' W 093°52'0 0.0
2018-Feb-13 19:30N 29°57' W 093°52'0 0.0
2018-Feb-13 19:00N 29°57' W 093°52'0 0.0
2018-Feb-13 18:31N 29°57' W 093°52'0 0.0
2018-Feb-13 18:00N 29°57' W 093°52'0 0.0
2018-Feb-13 17:31N 29°57' W 093°52'0 0.7
2018-Feb-13 17:00N 29°58' W 093°52'0 0.6
2018-Feb-13 16:31N 29°57' W 093°52'0 0.0
2018-Feb-13 16:01N 29°57' W 093°52'0 0.0
2018-Feb-13 15:30N 29°57' W 093°52'0 0.0
2018-Feb-13 15:00N 29°57' W 093°52'0 0.0
2018-Feb-13 14:31N 29°57' W 093°52'0 0.0
2018-Feb-13 14:01N 29°57' W 093°52'0 0.0
2018-Feb-13 13:31N 29°57' W 093°52'0 0.0
2018-Feb-13 13:01N 29°57' W 093°52'0 0.0
2018-Feb-13 12:30N 29°57' W 093°52'0 0.0
2018-Feb-13 12:00N 29°57' W 093°52'0 0.0
2018-Feb-13 11:30N 29°57' W 093°52'0 0.0
2018-Feb-13 11:00N 29°57' W 093°52'0 0.0
2018-Feb-13 10:31N 29°57' W 093°52'0 0.0
2018-Feb-13 10:01N 29°57' W 093°52'0 0.0
2018-Feb-13 09:29N 29°57' W 093°52'0 0.0
2018-Feb-13 09:00N 29°57' W 093°52'0 0.0
2018-Feb-13 08:30N 29°57' W 093°52'0 0.0
2018-Feb-13 08:01N 29°57' W 093°52'0 0.0
2018-Feb-13 07:30N 29°57' W 093°52'0 0.0
2018-Feb-13 07:00N 29°57' W 093°52'0 0.0
2018-Feb-13 06:30N 29°57' W 093°52'0 0.0
2018-Feb-13 06:00N 29°57' W 093°52'0 0.0
2018-Feb-13 05:31N 29°57' W 093°52'0 0.3
2018-Feb-13 05:01N 29°58' W 093°52'0 0.3
2018-Feb-13 04:31N 29°57' W 093°52'0 0.0
2018-Feb-13 04:00N 29°57' W 093°52'0 0.0
2018-Feb-13 03:30N 29°57' W 093°52'0 0.0
2018-Feb-13 03:01N 29°57' W 093°52'0 0.0
2018-Feb-13 02:30N 29°57' W 093°52'0 0.0
2018-Feb-13 01:59N 29°57' W 093°52'0 0.0
2018-Feb-13 01:22N 29°57' W 093°52'0 0.0
2018-Feb-13 01:00N 29°57' W 093°52'0 0.0
2018-Feb-13 00:31N 29°57' W 093°52'0 0.0
2018-Feb-13 00:00N 29°57' W 093°52'0 0.6
2018-Feb-12 23:30N 29°58' W 093°52'0 0.1
2018-Feb-12 23:00N 29°58' W 093°52'0 0.7
2018-Feb-12 22:31N 29°57' W 093°52'0 0.0
2018-Feb-12 22:00N 29°57' W 093°52'0 0.0
2018-Feb-12 21:31N 29°57' W 093°52'0 0.1
2018-Feb-12 21:01N 29°57' W 093°52'0 0.0
2018-Feb-12 20:31N 29°57' W 093°52'0 0.2
2018-Feb-12 20:00N 29°57' W 093°52'0 0.3
2018-Feb-12 19:31N 29°58' W 093°52'0 0.2
2018-Feb-12 19:01N 29°58' W 093°52'0 0.0
2018-Feb-12 18:30N 29°58' W 093°52'0 0.0
2018-Feb-12 18:00N 29°58' W 093°52'0 0.0
2018-Feb-12 17:29N 29°58' W 093°52'0 0.0
2018-Feb-12 16:59N 29°58' W 093°52'0 0.5
2018-Feb-12 16:30N 29°58' W 093°52'0 0.6
2018-Feb-12 16:00N 29°57' W 093°52'0 0.1
2018-Feb-12 15:31N 29°58' W 093°52'0 0.0
2018-Feb-12 15:00N 29°58' W 093°52'0 0.0
2018-Feb-12 14:31N 29°58' W 093°52'0 0.0
2018-Feb-12 14:00N 29°58' W 093°52'0 0.0
2018-Feb-12 13:31N 29°58' W 093°52'0 0.0
2018-Feb-12 13:01N 29°58' W 093°52'0 0.0
2018-Feb-12 12:30N 29°58' W 093°52'0 0.0
2018-Feb-12 12:01N 29°58' W 093°52'0 0.0
2018-Feb-12 11:31N 29°58' W 093°52'0 0.0
2018-Feb-12 11:01N 29°58' W 093°52'0 0.6
2018-Feb-12 10:31N 29°58' W 093°52'0 0.6
2018-Feb-12 10:01N 29°57' W 093°52'0 0.1
2018-Feb-12 09:31N 29°58' W 093°52'0 0.0
2018-Feb-12 09:00N 29°58' W 093°52'0 0.0
2018-Feb-12 08:31N 29°58' W 093°52'0 0.0
2018-Feb-12 08:01N 29°58' W 093°52'0 0.0
2018-Feb-12 07:31N 29°58' W 093°52'0 0.0
2018-Feb-12 07:01N 29°58' W 093°52'0 0.0
2018-Feb-12 06:31N 29°58' W 093°52'0 0.0
2018-Feb-12 06:00N 29°58' W 093°52'0 0.0
2018-Feb-12 05:31N 29°58' W 093°52'0 0.0
2018-Feb-12 05:01N 29°58' W 093°52'0 0.0
2018-Feb-12 04:31N 29°58' W 093°52'0 0.0
2018-Feb-12 04:00N 29°58' W 093°52'0 0.0
2018-Feb-12 03:28N 29°58' W 093°52'0 0.0
2018-Feb-12 03:00N 29°58' W 093°52'0 0.0
2018-Feb-12 02:31N 29°58' W 093°52'0 0.0
2018-Feb-12 01:59N 29°58' W 093°52'0 0.0
2018-Feb-12 01:31N 29°58' W 093°52'0 0.0
2018-Feb-12 00:59N 29°58' W 093°52'0 0.0
2018-Feb-12 00:28N 29°58' W 093°52'0 0.0
2018-Feb-12 00:00N 29°58' W 093°52'0 0.0
2018-Feb-11 23:30N 29°58' W 093°52'0 0.0
2018-Feb-11 23:01N 29°58' W 093°52'0 0.0
2018-Feb-11 22:30N 29°58' W 093°52'0 0.0
2018-Feb-11 22:00N 29°58' W 093°52'0 0.0
2018-Feb-11 21:30N 29°58' W 093°52'0 0.0
2018-Feb-11 21:01N 29°58' W 093°52'0 0.0
2018-Feb-11 20:26N 29°58' W 093°52'0 0.0
2018-Feb-11 19:59N 29°58' W 093°52'0 0.0
2018-Feb-11 19:30N 29°58' W 093°52'0 0.0
2018-Feb-11 19:01N 29°58' W 093°52'0 0.0
2018-Feb-11 18:31N 29°58' W 093°52'0 0.0
2018-Feb-11 18:01N 29°58' W 093°52'0 0.0
2018-Feb-11 17:30N 29°58' W 093°52'0 0.0
2018-Feb-11 17:00N 29°58' W 093°52'0 0.2
2018-Feb-11 16:31N 29°57' W 093°52'0 0.1
2018-Feb-11 16:01N 29°57' W 093°52'0 0.2
2018-Feb-11 15:31N 29°57' W 093°52'0 0.0
2018-Feb-11 15:01N 29°57' W 093°52'0 0.0
2018-Feb-11 14:31N 29°57' W 093°52'0 0.1
2018-Feb-11 14:00N 29°57' W 093°52'0 0.1
2018-Feb-11 13:31N 29°57' W 093°52'0 0.9
2018-Feb-11 13:00N 29°58' W 093°52'0 0.0
2018-Feb-11 12:31N 29°58' W 093°52'0 0.0
2018-Feb-11 12:00N 29°58' W 093°52'0 0.0
2018-Feb-11 11:29N 29°58' W 093°52'0 0.0
2018-Feb-11 11:01N 29°58' W 093°52'0 0.0
2018-Feb-11 10:31N 29°58' W 093°52'0 0.0
2018-Feb-11 10:01N 29°58' W 093°52'0 0.0
2018-Feb-11 09:30N 29°58' W 093°52'0 0.0
2018-Feb-11 09:01N 29°58' W 093°52'0 0.0
2018-Feb-11 08:30N 29°58' W 093°52'0 0.0
2018-Feb-11 08:00N 29°58' W 093°52'0 0.0
2018-Feb-11 07:30N 29°58' W 093°52'0 0.0
2018-Feb-11 07:01N 29°58' W 093°52'0 0.0
2018-Feb-11 06:31N 29°58' W 093°52'0 0.0
2018-Feb-11 06:01N 29°58' W 093°52'0 0.0
2018-Feb-11 05:30N 29°58' W 093°52'0 0.0
2018-Feb-11 05:00N 29°58' W 093°52'0 0.0
2018-Feb-11 04:31N 29°58' W 093°52'0 0.0
2018-Feb-11 04:01N 29°58' W 093°52'0 0.0
2018-Feb-11 03:30N 29°58' W 093°52'0 0.0
2018-Feb-11 03:01N 29°58' W 093°52'0 0.0
2018-Feb-11 02:31N 29°58' W 093°52'0 0.0
2018-Feb-11 02:00N 29°58' W 093°52'0 0.0
2018-Feb-11 01:30N 29°58' W 093°52'0 0.0
2018-Feb-11 01:00N 29°58' W 093°52'0 0.0
2018-Feb-11 00:30N 29°58' W 093°52'0 0.0
2018-Feb-11 00:00N 29°58' W 093°52'0 0.0
2018-Feb-10 23:30N 29°58' W 093°52'0 0.0
2018-Feb-10 23:00N 29°58' W 093°52'0 0.0
2018-Feb-10 22:31N 29°58' W 093°52'0 0.0
2018-Feb-10 22:01N 29°58' W 093°52'0 0.0
2018-Feb-10 21:31N 29°58' W 093°52'0 0.0
2018-Feb-10 21:01N 29°58' W 093°52'0 0.0
2018-Feb-10 20:31N 29°58' W 093°52'0 0.0
2018-Feb-10 20:01N 29°58' W 093°52'0 0.5
2018-Feb-10 19:30N 29°58' W 093°52'0 0.1
2018-Feb-10 19:01N 29°58' W 093°52'0 0.7
2018-Feb-10 18:29N 29°57' W 093°52'0 0.4
2018-Feb-10 18:00N 29°57' W 093°52'0 0.2
2018-Feb-10 17:30N 29°57' W 093°52'0 0.1
2018-Feb-10 17:00N 29°57' W 093°52'0 0.3
2018-Feb-10 16:30N 29°57' W 093°52'3 5.7
2018-Feb-10 16:00N 29°59' W 093°49'3 6.1
2018-Feb-10 15:30N 30°00' W 093°46'3 6.4
2018-Feb-10 15:00N 30°03' W 093°44'3 5.9
2018-Feb-10 14:30N 30°04' W 093°40'1 2.1
2018-Feb-10 14:00N 30°04' W 093°39'0 0.0
2018-Feb-10 13:29N 30°04' W 093°39'0 0.0
2018-Feb-10 13:00N 30°04' W 093°39'0 0.0
2018-Feb-10 12:30N 30°04' W 093°39'0 0.0
2018-Feb-10 11:19N 30°04' W 093°39'0 0.0
2018-Feb-10 10:59N 30°04' W 093°39'0 0.0
2018-Feb-10 10:30N 30°04' W 093°39'0 0.0
2018-Feb-10 09:57N 30°04' W 093°39'0 0.0
2018-Feb-10 09:30N 30°04' W 093°39'0 0.0
2018-Feb-10 09:00N 30°04' W 093°39'0 0.0
2018-Feb-10 08:24N 30°04' W 093°39'0 0.0
2018-Feb-10 07:57N 30°04' W 093°39'0 0.0
2018-Feb-10 07:22N 30°04' W 093°39'0 0.0
2018-Feb-10 06:58N 30°04' W 093°39'0 0.0
2018-Feb-10 06:23N 30°04' W 093°39'0 0.0
2018-Feb-10 05:53N 30°04' W 093°39'0 0.0
2018-Feb-10 05:22N 30°04' W 093°39'0 0.0
2018-Feb-10 04:04N 30°04' W 093°39'0 0.1
2018-Feb-10 03:59N 30°04' W 093°39'0 0.1
2018-Feb-10 03:25N 30°04' W 093°39'0 0.2
2018-Feb-10 01:22N 30°04' W 093°39'  

Dump ship's entire track history